sensor_id;sensor_type;location;lat;lon;timestamp;P1;durP1;ratioP1;P2;durP2;ratioP2
78013;SDS011;67222;50.182;8.734;2023-04-24T04:30:14;1.65;;;0.80;;
78013;SDS011;67222;50.182;8.734;2023-04-24T04:32:40;1.20;;;0.57;;
78013;SDS011;67222;50.182;8.734;2023-04-24T04:35:05;2.90;;;0.80;;
78013;SDS011;67222;50.182;8.734;2023-04-24T04:37:31;1.48;;;0.60;;
78013;SDS011;67222;50.182;8.734;2023-04-24T04:39:58;1.45;;;0.80;;
78013;SDS011;67222;50.182;8.734;2023-04-24T04:42:24;2.28;;;0.70;;
78013;SDS011;67222;50.182;8.734;2023-04-24T04:44:50;1.40;;;0.60;;
78013;SDS011;67222;50.182;8.734;2023-04-24T04:47:16;1.95;;;0.80;;
78013;SDS011;67222;50.182;8.734;2023-04-24T04:49:42;2.20;;;0.95;;
78013;SDS011;67222;50.182;8.734;2023-04-24T04:52:08;1.88;;;0.90;;
78013;SDS011;67222;50.182;8.734;2023-04-24T04:54:33;2.13;;;0.80;;
78013;SDS011;67222;50.182;8.734;2023-04-24T04:56:59;2.40;;;1.25;;
78013;SDS011;67222;50.182;8.734;2023-04-24T04:59:25;2.03;;;1.00;;
78013;SDS011;67222;50.182;8.734;2023-04-24T05:01:50;1.83;;;0.85;;
78013;SDS011;67222;50.182;8.734;2023-04-24T05:04:16;1.90;;;1.00;;
78013;SDS011;67222;50.182;8.734;2023-04-24T05:06:41;1.97;;;0.80;;
78013;SDS011;67222;50.182;8.734;2023-04-24T05:09:06;1.40;;;0.77;;
78013;SDS011;67222;50.182;8.734;2023-04-24T05:11:32;2.38;;;1.00;;
78013;SDS011;67222;50.182;8.734;2023-04-24T05:13:57;2.57;;;0.90;;
78013;SDS011;67222;50.182;8.734;2023-04-24T05:16:23;3.03;;;1.40;;
78013;SDS011;67222;50.182;8.734;2023-04-24T05:18:48;2.03;;;1.00;;
78013;SDS011;67222;50.182;8.734;2023-04-24T05:21:13;2.03;;;0.93;;
78013;SDS011;67222;50.182;8.734;2023-04-24T05:23:38;1.60;;;1.10;;
78013;SDS011;67222;50.182;8.734;2023-04-24T05:26:05;2.22;;;0.98;;
78013;SDS011;67222;50.182;8.734;2023-04-24T05:28:30;1.23;;;0.73;;
78013;SDS011;67222;50.182;8.734;2023-04-24T05:30:55;3.37;;;1.30;;
78013;SDS011;67222;50.182;8.734;2023-04-24T05:33:21;2.67;;;1.20;;
78013;SDS011;67222;50.182;8.734;2023-04-24T05:35:47;1.92;;;0.90;;
78013;SDS011;67222;50.182;8.734;2023-04-24T05:38:13;2.60;;;1.10;;
78013;SDS011;67222;50.182;8.734;2023-04-24T05:40:39;1.45;;;0.98;;
78013;SDS011;67222;50.182;8.734;2023-04-24T05:43:04;4.20;;;1.23;;
78013;SDS011;67222;50.182;8.734;2023-04-24T05:45:30;2.37;;;1.23;;
78013;SDS011;67222;50.182;8.734;2023-04-24T05:47:55;3.90;;;1.10;;
78013;SDS011;67222;50.182;8.734;2023-04-24T05:50:20;3.23;;;1.23;;
78013;SDS011;67222;50.182;8.734;2023-04-24T05:52:46;3.25;;;1.48;;
78013;SDS011;67222;50.182;8.734;2023-04-24T05:55:11;3.30;;;1.60;;
78013;SDS011;67222;50.182;8.734;2023-04-24T05:57:36;2.53;;;1.30;;
78013;SDS011;67222;50.182;8.734;2023-04-24T06:00:02;4.53;;;1.33;;
78013;SDS011;67222;50.182;8.734;2023-04-24T06:02:29;2.80;;;1.30;;
78013;SDS011;67222;50.182;8.734;2023-04-24T06:04:57;2.75;;;1.40;;
78013;SDS011;67222;50.182;8.734;2023-04-24T06:07:24;2.72;;;1.42;;
78013;SDS011;67222;50.182;8.734;2023-04-24T06:09:51;4.40;;;1.92;;
78013;SDS011;67222;50.182;8.734;2023-04-24T06:12:17;2.50;;;1.60;;
78013;SDS011;67222;50.182;8.734;2023-04-24T06:14:42;3.10;;;1.80;;
78013;SDS011;67222;50.182;8.734;2023-04-24T06:17:08;3.88;;;1.95;;
78013;SDS011;67222;50.182;8.734;2023-04-24T06:19:33;3.90;;;1.90;;
78013;SDS011;67222;50.182;8.734;2023-04-24T06:21:58;3.20;;;1.70;;
78013;SDS011;67222;50.182;8.734;2023-04-24T06:24:27;3.83;;;1.80;;
78013;SDS011;67222;50.182;8.734;2023-04-24T06:26:52;3.00;;;1.60;;
78013;SDS011;67222;50.182;8.734;2023-04-24T06:29:18;3.40;;;1.80;;
78013;SDS011;67222;50.182;8.734;2023-04-24T06:31:43;2.77;;;1.70;;
78013;SDS011;67222;50.182;8.734;2023-04-24T06:34:08;4.43;;;2.00;;
78013;SDS011;67222;50.182;8.734;2023-04-24T06:36:33;4.17;;;1.60;;
78013;SDS011;67222;50.182;8.734;2023-04-24T06:39:00;3.38;;;1.67;;
78013;SDS011;67222;50.182;8.734;2023-04-24T06:41:25;3.17;;;1.92;;
78013;SDS011;67222;50.182;8.734;2023-04-24T06:43:51;3.63;;;2.08;;
78013;SDS011;67222;50.182;8.734;2023-04-24T06:46:16;3.50;;;2.03;;
78013;SDS011;67222;50.182;8.734;2023-04-24T06:48:42;4.75;;;1.70;;
78013;SDS011;67222;50.182;8.734;2023-04-24T06:51:07;3.50;;;2.20;;
78013;SDS011;67222;50.182;8.734;2023-04-24T06:53:32;4.10;;;2.20;;
78013;SDS011;67222;50.182;8.734;2023-04-24T06:55:58;3.70;;;2.00;;
78013;SDS011;67222;50.182;8.734;2023-04-24T06:58:24;3.10;;;1.90;;
78013;SDS011;67222;50.182;8.734;2023-04-24T07:00:50;4.45;;;1.98;;
78013;SDS011;67222;50.182;8.734;2023-04-24T07:03:15;3.83;;;1.80;;
78013;SDS011;67222;50.182;8.734;2023-04-24T07:05:40;3.20;;;2.00;;
78013;SDS011;67222;50.182;8.734;2023-04-24T07:08:06;3.80;;;2.03;;
78013;SDS011;67222;50.182;8.734;2023-04-24T07:10:32;3.35;;;2.10;;
78013;SDS011;67222;50.182;8.734;2023-04-24T07:13:00;3.53;;;2.10;;
78013;SDS011;67222;50.182;8.734;2023-04-24T07:15:26;4.18;;;2.30;;
78013;SDS011;67222;50.182;8.734;2023-04-24T07:17:51;3.03;;;1.95;;
78013;SDS011;67222;50.182;8.734;2023-04-24T07:20:16;3.50;;;1.90;;
78013;SDS011;67222;50.182;8.734;2023-04-24T07:22:42;7.73;;;2.30;;
78013;SDS011;67222;50.182;8.734;2023-04-24T07:25:08;3.35;;;1.70;;
78013;SDS011;67222;50.182;8.734;2023-04-24T07:27:34;3.70;;;2.10;;
78013;SDS011;67222;50.182;8.734;2023-04-24T07:29:59;2.85;;;1.55;;
78013;SDS011;67222;50.182;8.734;2023-04-24T07:32:25;3.70;;;2.08;;
78013;SDS011;67222;50.182;8.734;2023-04-24T07:34:50;3.03;;;1.63;;
78013;SDS011;67222;50.182;8.734;2023-04-24T07:37:16;4.83;;;1.80;;
78013;SDS011;67222;50.182;8.734;2023-04-24T07:39:41;2.88;;;1.90;;
78013;SDS011;67222;50.182;8.734;2023-04-24T07:42:07;3.00;;;1.77;;
78013;SDS011;67222;50.182;8.734;2023-04-24T07:44:32;4.43;;;2.20;;
78013;SDS011;67222;50.182;8.734;2023-04-24T07:46:57;5.00;;;2.20;;
78013;SDS011;67222;50.182;8.734;2023-04-24T07:49:23;3.50;;;1.60;;
78013;SDS011;67222;50.182;8.734;2023-04-24T07:51:49;3.97;;;2.08;;
78013;SDS011;67222;50.182;8.734;2023-04-24T07:54:14;3.00;;;1.70;;
78013;SDS011;67222;50.182;8.734;2023-04-24T07:56:40;3.35;;;1.80;;
78013;SDS011;67222;50.182;8.734;2023-04-24T07:59:07;3.63;;;2.20;;
78013;SDS011;67222;50.182;8.734;2023-04-24T08:01:34;3.63;;;1.80;;
78013;SDS011;67222;50.182;8.734;2023-04-24T08:03:59;2.60;;;1.48;;
78013;SDS011;67222;50.182;8.734;2023-04-24T08:06:25;3.00;;;1.77;;
78013;SDS011;67222;50.182;8.734;2023-04-24T08:08:54;3.97;;;1.77;;
78013;SDS011;67222;50.182;8.734;2023-04-24T08:11:20;3.05;;;1.58;;
78013;SDS011;67222;50.182;8.734;2023-04-24T08:13:45;2.57;;;1.60;;
78013;SDS011;67222;50.182;8.734;2023-04-24T08:16:10;2.40;;;1.40;;
78013;SDS011;67222;50.182;8.734;2023-04-24T08:18:36;3.13;;;1.77;;
78013;SDS011;67222;50.182;8.734;2023-04-24T08:21:01;3.60;;;1.80;;
78013;SDS011;67222;50.182;8.734;2023-04-24T08:23:26;2.77;;;1.67;;
78013;SDS011;67222;50.182;8.734;2023-04-24T08:25:52;3.83;;;1.80;;
78013;SDS011;67222;50.182;8.734;2023-04-24T08:28:17;3.60;;;1.70;;
78013;SDS011;67222;50.182;8.734;2023-04-24T08:30:45;2.97;;;1.50;;
78013;SDS011;67222;50.182;8.734;2023-04-24T08:33:10;4.60;;;1.95;;
78013;SDS011;67222;50.182;8.734;2023-04-24T08:35:36;3.10;;;1.80;;
78013;SDS011;67222;50.182;8.734;2023-04-24T08:38:01;3.03;;;1.75;;
78013;SDS011;67222;50.182;8.734;2023-04-24T08:40:27;4.10;;;1.83;;
78013;SDS011;67222;50.182;8.734;2023-04-24T08:42:54;3.55;;;1.70;;
78013;SDS011;67222;50.182;8.734;2023-04-24T08:50:14;3.00;;;1.40;;
78013;SDS011;67222;50.182;8.734;2023-04-24T08:52:42;2.70;;;1.45;;
78013;SDS011;67222;50.182;8.734;2023-04-24T08:55:08;3.17;;;1.67;;
78013;SDS011;67222;50.182;8.734;2023-04-24T08:57:33;2.70;;;1.40;;
78013;SDS011;67222;50.182;8.734;2023-04-24T09:00:00;3.85;;;1.85;;
78013;SDS011;67222;50.182;8.734;2023-04-24T09:02:26;2.80;;;1.48;;
78013;SDS011;67222;50.182;8.734;2023-04-24T09:04:53;3.53;;;1.42;;
78013;SDS011;67222;50.182;8.734;2023-04-24T09:07:21;3.65;;;1.70;;
78013;SDS011;67222;50.182;8.734;2023-04-24T09:09:49;2.65;;;1.52;;
78013;SDS011;67222;50.182;8.734;2023-04-24T09:12:15;3.75;;;1.45;;
78013;SDS011;67222;50.182;8.734;2023-04-24T09:14:41;3.15;;;1.67;;
78013;SDS011;67222;50.182;8.734;2023-04-24T09:17:09;2.83;;;1.50;;
78013;SDS011;67222;50.182;8.734;2023-04-24T09:19:35;4.57;;;2.05;;
78013;SDS011;67222;50.182;8.734;2023-04-24T09:22:04;2.33;;;1.40;;
78013;SDS011;67222;50.182;8.734;2023-04-24T09:24:31;3.35;;;1.80;;
78013;SDS011;67222;50.182;8.734;2023-04-24T09:26:57;3.60;;;1.42;;
78013;SDS011;67222;50.182;8.734;2023-04-24T09:29:29;6.03;;;1.80;;
78013;SDS011;67222;50.182;8.734;2023-04-24T09:31:54;3.13;;;1.63;;
78013;SDS011;67222;50.182;8.734;2023-04-24T09:34:23;2.95;;;1.40;;
78013;SDS011;67222;50.182;8.734;2023-04-24T09:36:50;3.88;;;1.50;;
78013;SDS011;67222;50.182;8.734;2023-04-24T09:39:16;3.33;;;1.50;;
78013;SDS011;67222;50.182;8.734;2023-04-24T09:41:52;2.35;;;1.50;;
78013;SDS011;67222;50.182;8.734;2023-04-24T09:44:22;3.47;;;1.30;;
78013;SDS011;67222;50.182;8.734;2023-04-24T09:46:56;2.38;;;1.20;;
78013;SDS011;67222;50.182;8.734;2023-04-24T09:49:27;2.67;;;1.35;;
78013;SDS011;67222;50.182;8.734;2023-04-24T09:52:06;2.03;;;1.30;;
78013;SDS011;67222;50.182;8.734;2023-04-24T09:54:35;2.40;;;1.35;;
78013;SDS011;67222;50.182;8.734;2023-04-24T09:57:01;2.58;;;1.50;;
78013;SDS011;67222;50.182;8.734;2023-04-24T09:59:27;2.45;;;1.40;;
78013;SDS011;67222;50.182;8.734;2023-04-24T10:01:54;2.42;;;1.50;;
78013;SDS011;67222;50.182;8.734;2023-04-24T10:06:50;3.42;;;1.90;;
78013;SDS011;67222;50.182;8.734;2023-04-24T10:09:20;3.25;;;1.60;;
78013;SDS011;67222;50.182;8.734;2023-04-24T10:11:48;3.70;;;1.45;;
78013;SDS011;67222;50.182;8.734;2023-04-24T10:14:15;2.45;;;1.40;;
78013;SDS011;67222;50.182;8.734;2023-04-24T10:16:48;3.28;;;1.40;;
78013;SDS011;67222;50.182;8.734;2023-04-24T10:19:15;3.70;;;1.40;;
78013;SDS011;67222;50.182;8.734;2023-04-24T10:24:11;3.05;;;1.25;;
78013;SDS011;67222;50.182;8.734;2023-04-24T10:26:41;3.80;;;1.25;;
78013;SDS011;67222;50.182;8.734;2023-04-24T10:29:06;2.50;;;1.30;;
78013;SDS011;67222;50.182;8.734;2023-04-24T10:31:34;3.13;;;1.20;;
78013;SDS011;67222;50.182;8.734;2023-04-24T10:34:01;2.33;;;1.27;;
78013;SDS011;67222;50.182;8.734;2023-04-24T10:36:28;2.10;;;1.20;;
78013;SDS011;67222;50.182;8.734;2023-04-24T10:38:57;2.58;;;1.23;;
78013;SDS011;67222;50.182;8.734;2023-04-24T10:41:25;2.53;;;1.05;;
78013;SDS011;67222;50.182;8.734;2023-04-24T10:44:04;2.30;;;1.20;;
78013;SDS011;67222;50.182;8.734;2023-04-24T10:46:32;2.90;;;1.52;;
78013;SDS011;67222;50.182;8.734;2023-04-24T10:48:57;3.28;;;1.55;;
78013;SDS011;67222;50.182;8.734;2023-04-24T10:51:23;2.53;;;1.50;;
78013;SDS011;67222;50.182;8.734;2023-04-24T10:53:50;3.70;;;1.50;;
78013;SDS011;67222;50.182;8.734;2023-04-24T10:56:16;3.65;;;1.60;;
78013;SDS011;67222;50.182;8.734;2023-04-24T10:58:43;4.25;;;1.90;;
78013;SDS011;67222;50.182;8.734;2023-04-24T11:01:30;3.78;;;2.10;;
78013;SDS011;67222;50.182;8.734;2023-04-24T11:03:58;3.53;;;1.55;;
78013;SDS011;67222;50.182;8.734;2023-04-24T11:06:28;4.65;;;2.17;;
78013;SDS011;67222;50.182;8.734;2023-04-24T11:09:07;3.17;;;1.60;;
78013;SDS011;67222;50.182;8.734;2023-04-24T11:11:35;3.20;;;2.00;;
78013;SDS011;67222;50.182;8.734;2023-04-24T11:14:03;3.10;;;1.65;;
78013;SDS011;67222;50.182;8.734;2023-04-24T11:19:04;3.22;;;1.38;;
78013;SDS011;67222;50.182;8.734;2023-04-24T11:21:31;3.25;;;1.45;;
78013;SDS011;67222;50.182;8.734;2023-04-24T11:26:53;2.80;;;1.30;;
78013;SDS011;67222;50.182;8.734;2023-04-24T11:29:20;3.17;;;1.15;;
78013;SDS011;67222;50.182;8.734;2023-04-24T11:31:46;3.72;;;1.20;;
78013;SDS011;67222;50.182;8.734;2023-04-24T11:34:14;2.58;;;1.20;;
78013;SDS011;67222;50.182;8.734;2023-04-24T11:36:44;2.47;;;1.10;;
78013;SDS011;67222;50.182;8.734;2023-04-24T11:39:11;2.05;;;1.20;;
78013;SDS011;67222;50.182;8.734;2023-04-24T11:41:37;2.40;;;1.20;;
78013;SDS011;67222;50.182;8.734;2023-04-24T11:44:02;2.58;;;1.40;;
78013;SDS011;67222;50.182;8.734;2023-04-24T11:46:31;2.05;;;0.90;;
78013;SDS011;67222;50.182;8.734;2023-04-24T11:48:57;1.55;;;0.85;;
78013;SDS011;67222;50.182;8.734;2023-04-24T11:51:24;1.42;;;0.70;;
78013;SDS011;67222;50.182;8.734;2023-04-24T11:53:51;1.55;;;0.70;;
78013;SDS011;67222;50.182;8.734;2023-04-24T11:56:17;4.10;;;2.00;;
78013;SDS011;67222;50.182;8.734;2023-04-24T11:58:44;2.92;;;1.45;;
78013;SDS011;67222;50.182;8.734;2023-04-24T12:01:10;2.22;;;1.30;;
78013;SDS011;67222;50.182;8.734;2023-04-24T12:03:36;4.93;;;2.47;;
78013;SDS011;67222;50.182;8.734;2023-04-24T12:06:08;4.55;;;2.30;;
78013;SDS011;67222;50.182;8.734;2023-04-24T12:08:34;1.90;;;0.98;;
78013;SDS011;67222;50.182;8.734;2023-04-24T12:11:00;2.85;;;1.00;;
78013;SDS011;67222;50.182;8.734;2023-04-24T12:13:29;2.60;;;1.40;;
78013;SDS011;67222;50.182;8.734;2023-04-24T12:15:56;1.90;;;1.05;;
78013;SDS011;67222;50.182;8.734;2023-04-24T12:18:22;2.05;;;0.93;;
78013;SDS011;67222;50.182;8.734;2023-04-24T12:20:48;2.70;;;1.15;;
78013;SDS011;67222;50.182;8.734;2023-04-24T12:23:14;1.40;;;0.75;;
78013;SDS011;67222;50.182;8.734;2023-04-24T12:25:39;1.98;;;1.02;;
78013;SDS011;67222;50.182;8.734;2023-04-24T12:30:34;2.30;;;1.40;;
78013;SDS011;67222;50.182;8.734;2023-04-24T12:33:03;3.42;;;1.65;;
78013;SDS011;67222;50.182;8.734;2023-04-24T12:35:29;2.53;;;1.20;;
78013;SDS011;67222;50.182;8.734;2023-04-24T12:38:11;2.40;;;1.35;;
78013;SDS011;67222;50.182;8.734;2023-04-24T12:40:38;2.78;;;1.30;;
78013;SDS011;67222;50.182;8.734;2023-04-24T12:43:17;2.88;;;1.33;;
78013;SDS011;67222;50.182;8.734;2023-04-24T12:45:44;3.00;;;1.40;;
78013;SDS011;67222;50.182;8.734;2023-04-24T12:48:12;2.45;;;1.45;;
78013;SDS011;67222;50.182;8.734;2023-04-24T12:50:38;3.00;;;1.75;;
78013;SDS011;67222;50.182;8.734;2023-04-24T12:53:04;2.83;;;1.33;;
78013;SDS011;67222;50.182;8.734;2023-04-24T12:55:29;3.40;;;1.37;;
78013;SDS011;67222;50.182;8.734;2023-04-24T12:57:55;2.67;;;1.38;;
78013;SDS011;67222;50.182;8.734;2023-04-24T13:00:21;3.65;;;1.80;;
78013;SDS011;67222;50.182;8.734;2023-04-24T13:02:46;2.90;;;1.52;;
78013;SDS011;67222;50.182;8.734;2023-04-24T13:05:11;2.50;;;1.50;;
78013;SDS011;67222;50.182;8.734;2023-04-24T13:07:40;3.15;;;1.40;;
78013;SDS011;67222;50.182;8.734;2023-04-24T13:10:06;4.43;;;1.75;;
78013;SDS011;67222;50.182;8.734;2023-04-24T13:12:32;3.80;;;1.88;;
78013;SDS011;67222;50.182;8.734;2023-04-24T13:14:57;3.70;;;1.67;;
78013;SDS011;67222;50.182;8.734;2023-04-24T13:17:23;4.30;;;1.80;;
78013;SDS011;67222;50.182;8.734;2023-04-24T13:19:49;4.30;;;1.52;;
78013;SDS011;67222;50.182;8.734;2023-04-24T13:22:15;3.22;;;1.92;;
78013;SDS011;67222;50.182;8.734;2023-04-24T13:24:42;4.85;;;1.90;;
78013;SDS011;67222;50.182;8.734;2023-04-24T13:27:07;3.30;;;1.77;;
78013;SDS011;67222;50.182;8.734;2023-04-24T13:29:33;3.10;;;1.48;;
78013;SDS011;67222;50.182;8.734;2023-04-24T13:31:59;3.95;;;2.17;;
78013;SDS011;67222;50.182;8.734;2023-04-24T13:34:24;3.25;;;1.80;;
78013;SDS011;67222;50.182;8.734;2023-04-24T13:36:54;3.55;;;2.00;;
78013;SDS011;67222;50.182;8.734;2023-04-24T13:39:21;3.30;;;1.67;;
78013;SDS011;67222;50.182;8.734;2023-04-24T13:41:47;4.38;;;1.75;;
78013;SDS011;67222;50.182;8.734;2023-04-24T13:44:16;3.20;;;2.00;;
78013;SDS011;67222;50.182;8.734;2023-04-24T13:46:42;3.33;;;1.80;;
78013;SDS011;67222;50.182;8.734;2023-04-24T13:49:10;5.43;;;1.85;;
78013;SDS011;67222;50.182;8.734;2023-04-24T13:51:36;2.75;;;1.35;;
78013;SDS011;67222;50.182;8.734;2023-04-24T13:54:01;3.85;;;2.03;;
78013;SDS011;67222;50.182;8.734;2023-04-24T13:56:27;5.67;;;1.90;;
78013;SDS011;67222;50.182;8.734;2023-04-24T13:58:52;3.08;;;1.80;;
78013;SDS011;67222;50.182;8.734;2023-04-24T14:01:19;4.30;;;2.20;;
78013;SDS011;67222;50.182;8.734;2023-04-24T14:03:45;3.58;;;2.00;;
78013;SDS011;67222;50.182;8.734;2023-04-24T14:06:11;4.17;;;2.60;;
78013;SDS011;67222;50.182;8.734;2023-04-24T14:08:36;4.13;;;2.38;;
78013;SDS011;67222;50.182;8.734;2023-04-24T14:11:01;4.63;;;2.27;;
78013;SDS011;67222;50.182;8.734;2023-04-24T14:13:27;3.85;;;2.30;;
78013;SDS011;67222;50.182;8.734;2023-04-24T14:15:53;3.50;;;2.17;;
78013;SDS011;67222;50.182;8.734;2023-04-24T14:18:18;4.27;;;2.37;;
78013;SDS011;67222;50.182;8.734;2023-04-24T14:20:44;4.28;;;2.30;;
78013;SDS011;67222;50.182;8.734;2023-04-24T14:23:10;6.28;;;2.70;;
78013;SDS011;67222;50.182;8.734;2023-04-24T14:25:35;4.22;;;2.72;;
78013;SDS011;67222;50.182;8.734;2023-04-24T14:28:00;5.07;;;2.10;;
78013;SDS011;67222;50.182;8.734;2023-04-24T14:30:26;4.63;;;2.10;;
78013;SDS011;67222;50.182;8.734;2023-04-24T14:32:51;4.83;;;2.60;;
78013;SDS011;67222;50.182;8.734;2023-04-24T14:35:17;5.03;;;2.22;;
78013;SDS011;67222;50.182;8.734;2023-04-24T14:37:42;3.60;;;1.90;;
78013;SDS011;67222;50.182;8.734;2023-04-24T14:40:07;3.60;;;1.90;;
78013;SDS011;67222;50.182;8.734;2023-04-24T14:42:34;2.88;;;1.70;;
78013;SDS011;67222;50.182;8.734;2023-04-24T14:45:00;3.42;;;1.83;;
78013;SDS011;67222;50.182;8.734;2023-04-24T14:47:25;5.93;;;2.37;;
78013;SDS011;67222;50.182;8.734;2023-04-24T14:49:50;4.60;;;2.40;;
78013;SDS011;67222;50.182;8.734;2023-04-24T14:52:16;3.65;;;2.45;;
78013;SDS011;67222;50.182;8.734;2023-04-24T14:54:42;5.93;;;2.55;;
78013;SDS011;67222;50.182;8.734;2023-04-24T14:57:08;4.85;;;1.80;;
78013;SDS011;67222;50.182;8.734;2023-04-24T14:59:33;3.38;;;1.88;;
78013;SDS011;67222;50.182;8.734;2023-04-24T15:01:59;4.05;;;1.80;;
78013;SDS011;67222;50.182;8.734;2023-04-24T15:04:24;3.20;;;1.88;;
78013;SDS011;67222;50.182;8.734;2023-04-24T15:06:50;3.88;;;1.88;;
78013;SDS011;67222;50.182;8.734;2023-04-24T15:09:16;4.30;;;2.05;;
78013;SDS011;67222;50.182;8.734;2023-04-24T15:11:41;4.60;;;1.60;;
78013;SDS011;67222;50.182;8.734;2023-04-24T15:14:07;4.03;;;1.98;;
78013;SDS011;67222;50.182;8.734;2023-04-24T15:16:32;4.10;;;1.50;;
78013;SDS011;67222;50.182;8.734;2023-04-24T15:18:57;3.72;;;1.85;;
78013;SDS011;67222;50.182;8.734;2023-04-24T15:21:23;2.77;;;1.80;;
78013;SDS011;67222;50.182;8.734;2023-04-24T15:23:48;4.83;;;2.47;;
78013;SDS011;67222;50.182;8.734;2023-04-24T15:26:13;4.30;;;2.10;;
78013;SDS011;67222;50.182;8.734;2023-04-24T15:28:39;3.40;;;1.87;;
78013;SDS011;67222;50.182;8.734;2023-04-24T15:31:04;3.83;;;1.90;;
78013;SDS011;67222;50.182;8.734;2023-04-24T15:33:29;4.07;;;2.20;;
78013;SDS011;67222;50.182;8.734;2023-04-24T15:35:55;4.25;;;2.50;;
78013;SDS011;67222;50.182;8.734;2023-04-24T15:38:20;4.20;;;1.90;;
78013;SDS011;67222;50.182;8.734;2023-04-24T15:40:46;3.58;;;1.77;;
78013;SDS011;67222;50.182;8.734;2023-04-24T15:43:11;3.47;;;1.90;;
78013;SDS011;67222;50.182;8.734;2023-04-24T15:45:36;4.07;;;2.23;;
78013;SDS011;67222;50.182;8.734;2023-04-24T15:48:02;4.53;;;2.60;;
78013;SDS011;67222;50.182;8.734;2023-04-24T15:50:27;2.97;;;1.70;;
78013;SDS011;67222;50.182;8.734;2023-04-24T15:52:53;3.77;;;1.90;;
78013;SDS011;67222;50.182;8.734;2023-04-24T15:55:18;2.83;;;1.70;;
78013;SDS011;67222;50.182;8.734;2023-04-24T15:57:43;2.72;;;1.67;;
78013;SDS011;67222;50.182;8.734;2023-04-24T16:00:09;2.88;;;1.90;;
78013;SDS011;67222;50.182;8.734;2023-04-24T16:02:35;3.78;;;2.15;;
78013;SDS011;67222;50.182;8.734;2023-04-24T16:05:00;4.22;;;1.83;;
78013;SDS011;67222;50.182;8.734;2023-04-24T16:07:25;3.63;;;1.70;;
78013;SDS011;67222;50.182;8.734;2023-04-24T16:09:51;2.70;;;1.63;;
78013;SDS011;67222;50.182;8.734;2023-04-24T16:12:16;4.35;;;1.77;;
78013;SDS011;67222;50.182;8.734;2023-04-24T16:14:41;3.45;;;1.70;;
78013;SDS011;67222;50.182;8.734;2023-04-24T16:17:07;3.80;;;1.63;;
78013;SDS011;67222;50.182;8.734;2023-04-24T16:19:32;4.72;;;1.80;;
78013;SDS011;67222;50.182;8.734;2023-04-24T16:21:59;4.18;;;1.83;;
78013;SDS011;67222;50.182;8.734;2023-04-24T16:24:24;3.17;;;1.70;;
78013;SDS011;67222;50.182;8.734;2023-04-24T16:26:50;2.95;;;1.80;;
78013;SDS011;67222;50.182;8.734;2023-04-24T16:29:16;4.20;;;1.70;;
78013;SDS011;67222;50.182;8.734;2023-04-24T16:31:42;3.10;;;1.67;;
78013;SDS011;67222;50.182;8.734;2023-04-24T16:34:08;4.28;;;1.90;;
78013;SDS011;67222;50.182;8.734;2023-04-24T16:36:36;4.50;;;2.00;;
78013;SDS011;67222;50.182;8.734;2023-04-24T16:41:29;3.38;;;1.73;;
78013;SDS011;67222;50.182;8.734;2023-04-24T16:43:55;3.38;;;1.73;;
78013;SDS011;67222;50.182;8.734;2023-04-24T16:46:20;3.47;;;1.70;;
78013;SDS011;67222;50.182;8.734;2023-04-24T16:48:46;3.97;;;1.70;;
78013;SDS011;67222;50.182;8.734;2023-04-24T16:51:11;2.45;;;1.40;;
78013;SDS011;67222;50.182;8.734;2023-04-24T16:53:36;4.53;;;1.92;;
78013;SDS011;67222;50.182;8.734;2023-04-24T16:56:02;3.47;;;1.63;;
78013;SDS011;67222;50.182;8.734;2023-04-24T16:58:27;3.55;;;1.70;;
78013;SDS011;67222;50.182;8.734;2023-04-24T17:00:53;3.05;;;1.52;;
78013;SDS011;67222;50.182;8.734;2023-04-24T17:03:18;4.30;;;1.97;;
78013;SDS011;67222;50.182;8.734;2023-04-24T17:05:43;4.67;;;1.90;;
78013;SDS011;67222;50.182;8.734;2023-04-24T17:08:09;4.68;;;1.83;;
78013;SDS011;67222;50.182;8.734;2023-04-24T17:10:34;3.63;;;1.70;;
78013;SDS011;67222;50.182;8.734;2023-04-24T17:13:00;3.60;;;1.90;;
78013;SDS011;67222;50.182;8.734;2023-04-24T17:15:25;4.63;;;2.00;;
78013;SDS011;67222;50.182;8.734;2023-04-24T17:17:50;3.20;;;1.60;;
78013;SDS011;67222;50.182;8.734;2023-04-24T17:20:16;3.63;;;1.60;;
78013;SDS011;67222;50.182;8.734;2023-04-24T17:22:41;3.03;;;1.67;;
78013;SDS011;67222;50.182;8.734;2023-04-24T17:25:07;5.10;;;1.97;;
78013;SDS011;67222;50.182;8.734;2023-04-24T17:27:32;6.43;;;1.70;;
78013;SDS011;67222;50.182;8.734;2023-04-24T17:29:58;5.60;;;1.80;;
78013;SDS011;67222;50.182;8.734;2023-04-24T17:32:23;7.20;;;2.17;;
78013;SDS011;67222;50.182;8.734;2023-04-24T17:34:49;3.58;;;1.83;;
78013;SDS011;67222;50.182;8.734;2023-04-24T17:37:15;3.05;;;1.95;;
78013;SDS011;67222;50.182;8.734;2023-04-24T17:39:43;3.15;;;1.90;;
78013;SDS011;67222;50.182;8.734;2023-04-24T17:42:08;3.77;;;2.00;;
78013;SDS011;67222;50.182;8.734;2023-04-24T17:44:34;3.13;;;1.90;;
78013;SDS011;67222;50.182;8.734;2023-04-24T17:46:59;3.42;;;1.90;;
78013;SDS011;67222;50.182;8.734;2023-04-24T17:49:25;5.00;;;1.80;;
78013;SDS011;67222;50.182;8.734;2023-04-24T17:51:50;2.83;;;1.70;;
78013;SDS011;67222;50.182;8.734;2023-04-24T17:54:16;4.30;;;2.57;;
78013;SDS011;67222;50.182;8.734;2023-04-24T17:56:41;5.07;;;2.00;;
78013;SDS011;67222;50.182;8.734;2023-04-24T17:59:06;2.80;;;1.90;;
78013;SDS011;67222;50.182;8.734;2023-04-24T18:01:32;5.03;;;1.77;;
78013;SDS011;67222;50.182;8.734;2023-04-24T18:03:57;4.50;;;2.10;;
78013;SDS011;67222;50.182;8.734;2023-04-24T18:06:22;3.50;;;1.90;;
78013;SDS011;67222;50.182;8.734;2023-04-24T18:08:47;5.80;;;2.30;;
78013;SDS011;67222;50.182;8.734;2023-04-24T18:11:13;4.80;;;2.15;;
78013;SDS011;67222;50.182;8.734;2023-04-24T18:13:38;3.45;;;1.90;;
78013;SDS011;67222;50.182;8.734;2023-04-24T18:16:05;3.80;;;2.05;;
78013;SDS011;67222;50.182;8.734;2023-04-24T18:18:31;4.90;;;2.10;;
78013;SDS011;67222;50.182;8.734;2023-04-24T18:20:56;5.00;;;2.20;;
78013;SDS011;67222;50.182;8.734;2023-04-24T18:23:22;4.72;;;2.67;;
78013;SDS011;67222;50.182;8.734;2023-04-24T18:25:47;4.23;;;2.13;;
78013;SDS011;67222;50.182;8.734;2023-04-24T18:28:12;5.90;;;2.43;;
78013;SDS011;67222;50.182;8.734;2023-04-24T18:30:38;6.17;;;2.30;;
78013;SDS011;67222;50.182;8.734;2023-04-24T18:33:03;4.87;;;2.20;;
78013;SDS011;67222;50.182;8.734;2023-04-24T18:35:28;4.55;;;2.03;;
78013;SDS011;67222;50.182;8.734;2023-04-24T18:37:54;3.58;;;2.13;;
78013;SDS011;67222;50.182;8.734;2023-04-24T18:40:19;4.50;;;2.00;;
78013;SDS011;67222;50.182;8.734;2023-04-24T18:42:45;4.18;;;1.98;;
78013;SDS011;67222;50.182;8.734;2023-04-24T18:45:10;6.75;;;2.50;;
78013;SDS011;67222;50.182;8.734;2023-04-24T18:47:36;3.00;;;2.00;;
78013;SDS011;67222;50.182;8.734;2023-04-24T18:50:02;4.28;;;2.17;;
78013;SDS011;67222;50.182;8.734;2023-04-24T18:52:28;5.65;;;2.03;;
78013;SDS011;67222;50.182;8.734;2023-04-24T18:54:53;4.23;;;1.97;;
78013;SDS011;67222;50.182;8.734;2023-04-24T18:57:18;3.50;;;2.30;;
78013;SDS011;67222;50.182;8.734;2023-04-24T18:59:44;2.75;;;1.80;;
78013;SDS011;67222;50.182;8.734;2023-04-24T19:02:09;3.50;;;2.22;;
78013;SDS011;67222;50.182;8.734;2023-04-24T19:04:35;5.18;;;2.47;;
78013;SDS011;67222;50.182;8.734;2023-04-24T19:07:00;4.67;;;2.50;;
78013;SDS011;67222;50.182;8.734;2023-04-24T19:09:25;3.75;;;2.17;;
78013;SDS011;67222;50.182;8.734;2023-04-24T19:11:51;5.83;;;2.60;;
78013;SDS011;67222;50.182;8.734;2023-04-24T19:14:16;4.60;;;2.13;;
78013;SDS011;67222;50.182;8.734;2023-04-24T19:16:43;5.75;;;2.80;;
78013;SDS011;67222;50.182;8.734;2023-04-24T19:19:08;4.03;;;2.22;;
78013;SDS011;67222;50.182;8.734;2023-04-24T19:21:33;4.53;;;2.70;;
78013;SDS011;67222;50.182;8.734;2023-04-24T19:23:59;4.75;;;1.95;;
78013;SDS011;67222;50.182;8.734;2023-04-24T19:26:25;3.78;;;1.90;;
78013;SDS011;67222;50.182;8.734;2023-04-24T19:28:52;2.92;;;1.77;;
78013;SDS011;67222;50.182;8.734;2023-04-24T19:31:21;4.05;;;1.88;;